Time;durP1;ratioP1;P1;durP2;ratioP2;P2;SDS_P1;SDS_P2;PMS_P1;PMS_P2;Temp;Humidity;BMP_temperature;BMP_pressure;BME280_temperature;BME280_humidity;BME280_pressure;Samples;Min_cycle;Max_cycle;Signal;HPM_P1;HPM_P2
2022/08/16 05:52:23;;;;;;;14.87;7.12;;;;;;;23.38;63.30;99554.69;6565324;27;231938;31
2022/08/16 05:55:29;;;;;;;25.00;7.78;;;;;;;23.63;60.93;99562.62;6558216;27;33027;-87
2022/08/16 05:58:37;;;;;;;11.60;6.85;;;;;;;24.00;59.63;99556.53;6578572;27;34731;-92
2022/08/16 06:01:44;;;;;;;11.23;6.70;;;;;;;24.28;57.28;99556.78;6578882;27;34444;-93
2022/08/16 06:04:49;;;;;;;13.57;7.10;;;;;;;24.96;55.47;99547.69;6580093;27;34360;-88
2022/08/16 06:07:56;;;;;;;9.10;7.20;;;;;;;25.30;55.79;99558.87;6578265;27;35291;-88
2022/08/16 06:11:09;;;;;;;11.20;6.85;;;;;;;25.86;53.25;99551.87;6578593;27;34067;-89
2022/08/16 06:14:17;;;;;;;10.45;7.03;;;;;;;27.06;50.13;99549.19;6597256;27;33597;-88
2022/08/16 06:20:49;;;;;;;12.13;6.70;;;;;;;28.42;47.14;99557.22;6552052;27;33550;-87
2022/08/16 06:23:58;;;;;;;10.27;6.60;;;;;;;29.36;42.45;99550.47;6552756;27;33734;-86
2022/08/16 06:27:03;;;;;;;11.23;6.15;;;;;;;28.54;43.96;99553.78;6532468;27;32906;-86
2022/08/16 06:30:12;;;;;;;27.83;7.22;;;;;;;29.05;42.54;99563.91;6532198;27;32963;-86
2022/08/16 06:33:22;;;;;;;11.80;6.50;;;;;;;28.89;43.20;99561.66;6551698;27;33861;-91
2022/08/16 06:36:26;;;;;;;11.63;6.47;;;;;;;28.77;44.01;99559.56;6552000;27;34119;-88
2022/08/16 06:39:30;;;;;;;9.88;6.50;;;;;;;27.68;46.12;99566.28;6552140;27;33900;-88
2022/08/16 06:42:37;;;;;;;9.13;6.78;;;;;;;27.71;46.22;99557.69;6557614;27;33708;-89
2022/08/16 06:45:59;;;;;;;15.00;6.53;;;;;;;27.44;46.39;99554.06;6544749;27;34009;-88
2022/08/16 06:49:09;;;;;;;11.60;6.78;;;;;;;27.99;45.49;99544.88;6563478;27;33841;-88
2022/08/16 06:52:12;;;;;;;9.88;6.25;;;;;;;28.05;45.19;99545.94;6567987;27;34586;-89
2022/08/16 06:55:35;;;;;;;10.05;6.43;;;;;;;28.34;45.12;99547.38;6546655;27;33521;-88
2022/08/16 06:58:40;;;;;;;11.15;6.45;;;;;;;28.70;44.66;99547.03;6570601;27;34845;-88
2022/08/16 07:01:47;;;;;;;12.50;6.70;;;;;;;28.27;44.02;99556.59;6558985;27;34346;-88
2022/08/16 07:04:57;;;;;;;12.48;6.50;;;;;;;27.95;45.19;99549.91;6555583;27;34711;-90
2022/08/16 07:11:39;;;;;;;10.10;6.68;;;;;;;27.60;46.56;99552.03;6595938;27;20037;-89
2022/08/16 07:14:51;;;;;;;28.15;7.80;;;;;;;27.49;47.00;99551.56;6599534;27;35265;-90
2022/08/16 07:29:22;;;;;;;15.70;7.07;;;;;;;27.18;47.92;99562.00;6596604;27;20036;-90
2022/08/16 07:32:28;;;;;;;11.95;6.80;;;;;;;27.22;48.01;99558.87;6576979;26;34847;-90
2022/08/16 07:42:46;;;;;;;10.48;6.32;;;;;;;28.17;45.59;99576.97;6553157;27;34350;-89
2022/08/16 07:45:51;;;;;;;8.88;6.07;;;;;;;28.57;44.84;99575.19;6553523;27;33999;-89
2022/08/16 07:48:55;;;;;;;10.52;5.37;;;;;;;28.86;42.26;99573.84;6534509;27;32684;-89
2022/08/16 07:52:06;;;;;;;12.23;6.20;;;;;;;28.34;42.17;99582.81;6541555;27;33120;-88
2022/08/16 07:55:22;;;;;;;9.30;6.53;;;;;;;28.30;42.64;99584.28;6566913;27;34165;-89
2022/08/16 07:58:27;;;;;;;8.75;6.00;;;;;;;27.84;43.69;99581.37;6545445;27;32726;-89
2022/08/16 08:01:39;;;;;;;11.70;6.18;;;;;;;28.26;43.50;99577.59;6565955;27;34189;-89
2022/08/16 08:04:46;;;;;;;15.70;6.50;;;;;;;28.42;42.11;99576.31;6556965;27;32874;-90
2022/08/16 08:07:52;;;;;;;14.52;6.20;;;;;;;27.99;42.64;99577.59;6562340;27;32689;-90
2022/08/16 08:14:48;;;;;;;14.73;6.43;;;;;;;28.42;42.70;99572.72;6578757;27;20079;-90
2022/08/16 08:17:53;;;;;;;9.30;5.50;;;;;;;28.39;41.76;99571.25;6580009;27;35248;-89
2022/08/16 08:20:58;;;;;;;13.55;6.15;;;;;;;28.55;42.66;99569.13;6583125;27;35556;-91
2022/08/16 08:24:11;;;;;;;14.27;6.18;;;;;;;28.11;42.59;99575.91;6580062;27;35308;31
2022/08/16 08:27:17;;;;;;;12.15;5.80;;;;;;;27.77;42.58;99572.38;6553436;27;34111;-89
2022/08/16 08:30:27;;;;;;;8.00;4.65;;;;;;;29.11;40.43;99575.00;6533536;27;32316;-89
2022/08/16 08:33:50;;;;;;;15.10;5.80;;;;;;;30.64;36.59;99568.47;6553506;27;33513;-88
2022/08/16 08:36:54;;;;;;;11.50;5.22;;;;;;;32.06;34.67;99582.87;6559253;27;33718;-88
2022/08/16 08:39:57;;;;;;;14.50;5.85;;;;;;;33.20;31.95;99571.53;6562642;27;34004;-88
2022/08/16 08:43:01;;;;;;;7.15;4.75;;;;;;;33.59;31.16;99565.38;6560147;27;33844;-89
2022/08/16 08:46:14;;;;;;;14.27;5.10;;;;;;;33.38;30.31;99563.34;6533723;27;33017;-89
2022/08/16 08:49:23;;;;;;;12.53;4.80;;;;;;;33.56;30.52;99568.63;6552759;27;34235;-89
2022/08/16 08:52:46;;;;;;;11.32;4.75;;;;;;;33.73;29.86;99571.38;6552424;27;33586;-88
2022/08/16 08:55:50;;;;;;;9.25;4.55;;;;;;;34.75;29.50;99568.69;6552483;27;33528;-89
2022/08/16 08:59:00;;;;;;;9.82;4.07;;;;;;;35.72;27.42;99561.69;6533675;27;33019;-89
2022/08/16 09:02:17;;;;;;;6.20;4.03;;;;;;;34.64;27.64;99565.00;6553626;27;34585;-89
2022/08/16 09:05:25;;;;;;;5.47;3.77;;;;;;;36.08;25.60;99561.94;6553635;27;33832;-89
2022/08/16 09:08:43;;;;;;;4.12;3.72;;;;;;;37.26;24.36;99559.13;6554392;27;33892;-90
2022/08/16 09:11:51;;;;;;;9.63;4.78;;;;;;;37.38;23.39;99556.06;6533029;27;32950;-91
2022/08/16 09:15:12;;;;;;;7.75;4.28;;;;;;;37.70;23.95;99557.78;6552184;27;34100;-88
2022/08/16 09:18:19;;;;;;;6.80;3.85;;;;;;;37.87;23.50;99558.28;6552004;27;33727;-87
2022/08/16 09:21:29;;;;;;;8.93;4.53;;;;;;;37.69;23.70;99558.84;6532725;27;33182;-87
2022/08/16 09:24:33;;;;;;;7.32;4.22;;;;;;;37.64;23.59;99559.69;6551719;27;34596;-87
2022/08/16 09:27:55;;;;;;;6.25;4.20;;;;;;;37.04;24.38;99557.38;6533296;27;33048;-87
2022/08/16 09:31:13;;;;;;;5.07;4.20;;;;;;;37.74;23.84;99556.09;6532798;27;33795;-86
2022/08/16 09:34:16;;;;;;;10.40;4.40;;;;;;;38.84;22.31;99545.53;6552063;27;34229;-86
2022/08/16 09:37:20;;;;;;;4.32;3.90;;;;;;;38.82;22.79;99543.03;6532284;27;32863;-86
2022/08/16 09:40:34;;;;;;;6.75;4.15;;;;;;;39.31;21.38;99543.28;6532227;27;32811;-87
2022/08/16 09:43:44;;;;;;;6.75;4.00;;;;;;;39.15;21.71;99540.62;6552265;27;34916;-87
2022/08/16 09:47:02;;;;;;;5.82;4.18;;;;;;;39.71;21.28;99544.06;6551642;27;33900;-87
2022/08/16 09:50:13;;;;;;;8.27;4.00;;;;;;;40.17;20.46;99547.50;6533251;27;32863;-87
2022/08/16 09:53:25;;;;;;;23.70;5.45;;;;;;;39.94;20.68;99540.81;6552824;27;34635;-87
2022/08/16 09:56:32;;;;;;;24.17;4.62;;;;;;;39.61;20.37;99533.91;6552459;27;33771;-89
2022/08/16 09:59:36;;;;;;;4.32;3.92;;;;;;;39.69;21.05;99548.25;6552660;27;34389;-91
2022/08/16 10:02:41;;;;;;;4.93;3.90;;;;;;;40.39;19.97;99543.37;6533265;27;32840;-92
2022/08/16 10:05:50;;;;;;;5.85;4.20;;;;;;;42.26;18.08;99541.25;6552879;27;33723;-88
2022/08/16 10:08:53;;;;;;;4.47;3.80;;;;;;;43.61;16.78;99538.19;6534440;27;33671;-88
2022/08/16 10:15:30;;;;;;;4.68;4.03;;;;;;;42.15;17.66;99534.22;6566848;27;36436;-87
2022/08/16 10:18:34;;;;;;;5.47;4.10;;;;;;;42.00;17.82;99526.97;6553099;27;34559;-87
2022/08/16 10:21:58;;;;;;;5.05;3.87;;;;;;;41.67;17.98;99522.28;6552197;27;33980;-87
2022/08/16 10:25:07;;;;;;;8.32;4.07;;;;;;;41.58;18.65;99518.56;6552842;27;33708;-87
2022/08/16 10:28:11;;;;;;;5.53;3.60;;;;;;;41.46;18.60;99519.03;6551939;27;34013;-88
2022/08/16 10:31:41;;;;;;;5.10;3.87;;;;;;;41.04;18.59;99510.53;6552142;27;34776;-88
2022/08/16 10:34:47;;;;;;;5.40;3.78;;;;;;;40.95;18.44;99513.16;6559381;27;33641;-88
2022/08/16 10:37:54;;;;;;;4.75;3.72;;;;;;;41.43;17.76;99519.66;6570124;27;34422;-88
2022/08/16 10:40:58;;;;;;;4.00;3.62;;;;;;;42.32;16.58;99514.09;6561907;27;35528;-88
2022/08/16 10:44:03;;;;;;;4.37;3.97;;;;;;;44.16;15.20;99521.34;6534202;27;32672;-87
2022/08/16 10:47:11;;;;;;;4.37;3.75;;;;;;;44.48;15.23;99513.69;6553743;27;34011;-88
2022/08/16 10:50:16;;;;;;;9.55;4.25;;;;;;;47.21;13.27;99522.25;6554779;27;34955;-88
2022/08/16 10:53:21;;;;;;;5.65;3.90;;;;;;;47.37;13.19;99519.63;6533962;27;32284;-91
2022/08/16 10:56:25;;;;;;;4.30;3.90;;;;;;;45.42;13.98;99510.72;6547652;27;32666;-87
2022/08/16 10:59:48;;;;;;;4.12;3.83;;;;;;;43.33;16.17;99513.19;6570142;27;34571;-88
2022/08/16 11:03:04;;;;;;;4.03;3.72;;;;;;;39.65;19.00;99500.03;6556164;27;34099;-87
2022/08/16 11:06:07;;;;;;;4.95;3.90;;;;;;;40.05;18.92;99499.91;6552178;27;35250;-88
2022/08/16 11:09:14;;;;;;;4.60;4.30;;;;;;;39.60;18.78;99498.09;6552037;27;34139;-88
2022/08/16 11:12:30;;;;;;;4.47;4.07;;;;;;;39.84;18.39;99497.31;6532082;27;33492;-88
2022/08/16 11:15:34;;;;;;;5.00;3.75;;;;;;;39.81;18.62;99498.72;6532145;27;33029;-87
2022/08/16 11:18:38;;;;;;;6.87;4.15;;;;;;;39.98;18.89;99505.78;6551834;27;33879;-87
2022/08/16 11:22:01;;;;;;;14.48;4.20;;;;;;;37.87;22.70;99505.69;6550990;27;34363;-87
2022/08/16 11:25:26;;;;;;;13.93;4.80;;;;;;;34.97;26.80;99532.84;6551145;27;34678;-87
2022/08/16 11:28:49;;;;;;;13.95;4.72;;;;;;;34.62;28.33;99521.19;6532894;27;33021;-87
2022/08/16 11:32:12;;;;;;;8.73;4.35;;;;;;;33.59;29.25;99528.81;6553642;27;33788;-91
2022/08/16 11:35:25;;;;;;;9.88;4.75;;;;;;;32.90;31.08;99522.34;6551428;27;33922;-91
2022/08/16 11:38:48;;;;;;;5.07;4.35;;;;;;;32.47;31.57;99528.09;6535934;27;34670;-87
2022/08/16 11:42:00;;;;;;;4.30;3.95;;;;;;;32.21;31.46;99533.03;6551529;27;35136;-87
2022/08/16 11:45:04;;;;;;;3.92;3.62;;;;;;;31.89;30.53;99541.63;6551567;27;33687;-87
2022/08/16 11:48:08;;;;;;;7.12;4.10;;;;;;;31.49;29.87;99536.78;6551743;27;33843;-88
2022/08/16 11:51:12;;;;;;;4.95;4.12;;;;;;;31.81;29.70;99529.06;6552171;27;35226;-88
2022/08/16 11:54:15;;;;;;;4.62;4.22;;;;;;;31.66;30.24;99528.69;6532176;27;32723;-87
2022/08/16 11:57:23;;;;;;;4.37;3.60;;;;;;;31.52;31.14;99533.59;6551252;27;33847;-88
2022/08/16 12:00:30;;;;;;;4.50;4.07;;;;;;;31.63;30.92;99538.25;6532560;27;32412;-87
2022/08/16 12:03:52;;;;;;;7.07;4.00;;;;;;;31.59;30.75;99534.31;6552203;27;34220;-87
2022/08/16 12:06:54;;;;;;;4.53;4.12;;;;;;;31.63;30.88;99532.78;6539448;27;32848;-88
2022/08/16 12:09:58;;;;;;;5.05;4.25;;;;;;;31.76;30.75;99536.37;6569352;27;35316;-88
2022/08/16 12:13:02;;;;;;;6.10;4.40;;;;;;;31.93;31.64;99531.03;6566027;27;34806;-87
2022/08/16 12:16:07;;;;;;;7.40;4.30;;;;;;;32.02;30.60;99529.56;6532572;27;33324;-88
2022/08/16 12:19:11;;;;;;;11.52;4.60;;;;;;;32.16;30.85;99530.16;6551685;27;34789;-87
2022/08/16 12:22:15;;;;;;;8.98;4.60;;;;;;;32.29;30.65;99522.75;6551219;27;34150;-87
2022/08/16 12:25:24;;;;;;;9.15;4.53;;;;;;;32.36;30.36;99520.69;6522906;27;33284;-88
2022/08/16 12:28:27;;;;;;;6.62;4.55;;;;;;;32.25;30.73;99528.72;6523754;27;32740;-87
2022/08/16 12:31:50;;;;;;;4.93;4.40;;;;;;;32.13;30.54;99525.16;6525319;27;33733;-86
2022/08/16 12:35:18;;;;;;;5.60;4.30;;;;;;;32.30;29.86;99527.16;6526947;27;34483;-86
2022/08/16 12:38:22;;;;;;;7.87;4.32;;;;;;;31.75;30.07;99530.03;6534951;27;33911;-87
2022/08/16 12:41:45;;;;;;;4.30;3.40;;;;;;;32.12;29.67;99524.31;6543375;27;35288;-87
2022/08/16 12:44:48;;;;;;;4.10;3.70;;;;;;;32.11;28.63;99522.66;6541078;27;33966;-87
2022/08/16 12:51:40;;;;;;;4.03;3.55;;;;;;;31.87;29.18;99533.63;6533260;27;33464;-87
2022/08/16 12:55:02;;;;;;;8.73;3.53;;;;;;;31.97;28.95;99532.22;6524917;27;33022;-87
2022/08/16 12:58:05;;;;;;;4.32;3.60;;;;;;;31.65;29.51;99522.41;6526397;27;33784;-88
2022/08/16 13:01:32;;;;;;;4.47;4.00;;;;;;;31.57;30.16;99520.03;6524207;27;32562;-87
2022/08/16 13:04:36;;;;;;;5.05;4.55;;;;;;;31.37;30.14;99512.13;6524002;27;33620;-87
2022/08/16 13:07:40;;;;;;;5.47;4.25;;;;;;;31.26;30.82;99516.47;6523799;27;33598;-87
2022/08/16 13:10:53;;;;;;;4.93;4.43;;;;;;;30.98;31.85;99509.72;6525358;27;33864;-91
2022/08/16 13:13:57;;;;;;;6.20;4.53;;;;;;;30.93;32.31;99511.25;6524833;27;34221;-91
2022/08/16 13:17:02;;;;;;;4.82;4.10;;;;;;;30.64;32.76;99493.72;6525799;27;33842;-90
2022/08/16 13:20:14;;;;;;;3.97;3.67;;;;;;;30.47;33.10;99496.28;6524121;27;32588;-88
2022/08/16 13:23:18;;;;;;;4.95;3.72;;;;;;;30.42;33.04;99491.47;6523823;27;32443;-88
2022/08/16 13:26:21;;;;;;;4.07;3.65;;;;;;;30.65;32.91;99487.19;6544596;27;35026;-87
2022/08/16 13:29:24;;;;;;;5.12;4.10;;;;;;;31.02;32.56;99483.56;6553403;27;33604;-89
2022/08/16 13:32:46;;;;;;;7.05;4.32;;;;;;;31.50;32.15;99484.50;6537478;27;32477;-89
2022/08/16 13:35:53;;;;;;;7.28;4.32;;;;;;;31.69;32.12;99484.38;6567220;27;35126;-89
2022/08/16 13:39:00;;;;;;;11.43;4.70;;;;;;;31.57;31.91;99474.25;6541656;27;32435;-89
2022/08/16 13:42:08;;;;;;;9.30;4.20;;;;;;;31.56;32.46;99478.06;6554864;27;34048;-90
2022/08/16 13:45:14;;;;;;;7.15;4.78;;;;;;;31.56;33.03;99478.06;6554513;27;34019;-90
2022/08/16 13:48:17;;;;;;;5.20;4.72;;;;;;;31.58;33.39;99475.09;6535077;27;33128;-90
2022/08/16 13:51:28;;;;;;;5.15;4.40;;;;;;;31.59;33.67;99471.28;6565737;27;34729;-90
2022/08/16 13:57:58;;;;;;;8.95;5.22;;;;;;;31.46;34.01;99472.34;6567129;27;33022;-91
2022/08/16 14:01:41;;;;;;;6.82;5.28;;;;;;;31.27;33.86;99466.13;6584986;27;20072;-90
2022/08/16 14:05:04;;;;;;;6.55;4.93;;;;;;;31.30;34.16;99458.28;6579119;27;34016;-86
2022/08/16 14:19:28;;;;;;;6.03;5.03;;;;;;;31.05;34.66;99474.84;6584201;27;20071;-90
2022/08/16 14:22:37;;;;;;;11.50;5.00;;;;;;;31.48;35.26;99466.63;6532458;27;32876;-90
2022/08/16 14:44:34;;;;;;;5.37;4.68;;;;;;;31.50;33.78;99483.66;6582543;27;20068;-90
2022/08/16 14:47:41;;;;;;;5.60;4.60;;;;;;;31.41;34.91;99483.16;6581138;27;34779;-91
2022/08/16 14:50:51;;;;;;;8.23;4.65;;;;;;;31.30;35.56;99493.03;6561875;27;32977;-90
2022/08/16 14:54:03;;;;;;;4.78;4.37;;;;;;;30.84;34.97;99495.38;6557146;27;33082;-89
2022/08/16 14:57:06;;;;;;;8.18;4.70;;;;;;;30.73;33.72;99494.28;6557152;27;32445;-90
2022/08/16 15:00:12;;;;;;;5.87;4.50;;;;;;;31.08;34.34;99498.19;6577980;27;35179;-89
2022/08/16 15:03:20;;;;;;;7.00;4.15;;;;;;;31.05;34.66;99496.75;6581005;27;34053;-89
2022/08/16 15:06:24;;;;;;;10.30;4.10;;;;;;;30.90;32.74;99497.19;6580894;27;34097;-89
2022/08/16 15:09:27;;;;;;;7.20;3.60;;;;;;;30.83;31.58;99496.47;6561206;27;32877;-89
2022/08/16 15:12:31;;;;;;;4.95;3.92;;;;;;;30.86;31.29;99502.31;6561558;27;34023;-89
